Finnhawk — OJNL — position and weather

sailwx.info

Track history (hours):
 
Tides and Currents Weather Stations Pressure Air Temp Water Temp Dewpoint Dewpoint Depression Visibility Wind Speed Wind Dir Waves Ship Positions

Finnhawk

Last reported at 2016-Feb-09 09:27 UTC. Time now 2016-Feb-09 17:55 UTC.
Position N 54°14' E 004°53'.

Length 163 m; draft 5.5 m.

Type: Ship. MMSI: 230007000.

Date/timePositionNaut miles runAvg speedWind from/ knotsBaromVisibWave heightAir tempDewpointWater temp
2016-Feb-09 09:27N 54°14' E 004°53'3819.7
2016-Feb-09 07:31N 53°43' E 004°15'2020.6
2016-Feb-09 06:34N 53°31' E 003°49'2019.8
2016-Feb-09 05:34N 53°14' E 003°33'2420.2
2016-Feb-09 04:21N 52°52' E 003°17'1821.0
2016-Feb-09 03:29N 52°37' E 002°59'5021.4
2016-Feb-09 01:10N 51°55' E 002°15'1321.1
2016-Feb-09 00:33N 51°44' E 002°03'2020.2
2016-Feb-08 23:34N 51°31' E 001°39'1212.1
2016-Feb-08 22:34N 51°29' E 001°20'1515.3
2016-Feb-08 21:33N 51°29' E 000°55'1515.4
2016-Feb-08 20:33N 51°30' E 000°31'7 6.9
2016-Feb-08 19:34N 51°27' E 000°20'1 0.6
2016-Feb-08 18:34N 51°27' E 000°21'0 0.0
2016-Feb-08 17:34N 51°27' E 000°21'0 0.0
2016-Feb-08 16:34N 51°27' E 000°21'0 0.0
2016-Feb-08 15:34N 51°27' E 000°21'0 0.0
2016-Feb-08 14:34N 51°27' E 000°21'0 0.0
2016-Feb-08 13:34N 51°27' E 000°21'0 0.0
2016-Feb-08 12:34N 51°27' E 000°21'0 0.0
2016-Feb-08 11:34N 51°27' E 000°21'0 0.0
2016-Feb-08 10:34N 51°27' E 000°21'0 0.1
2016-Feb-08 09:34N 51°27' E 000°21'1 0.6
2016-Feb-08 08:34N 51°27' E 000°22'10 9.7
2016-Feb-08 07:33N 51°30' E 000°37'1716.6
2016-Feb-08 06:34N 51°30' E 001°03'1211.8
2016-Feb-08 05:34N 51°28' E 001°22'9 9.4
2016-Feb-08 04:33N 51°30' E 001°37'1414.0
2016-Feb-08 03:34N 51°38' E 001°55'1413.9
2016-Feb-08 02:33N 51°45' E 002°14'5911.2
2016-Feb-07 21:17N 52°23' E 003°29'811.1
2016-Feb-07 20:32N 52°27' E 003°40'1211.8
2016-Feb-07 19:34N 52°32' E 003°57'1312.7
2016-Feb-07 18:33N 52°30' E 004°18'10 9.5
2016-Feb-07 17:33N 52°28' E 004°33'3 3.0
2016-Feb-07 16:34N 52°28' E 004°38'8 8.3
2016-Feb-07 15:33N 52°24' E 004°50'0 0.0
2016-Feb-07 14:33N 52°24' E 004°50'0 0.0
2016-Feb-07 13:33N 52°24' E 004°50'0 0.0
2016-Feb-07 12:33N 52°24' E 004°50'0 0.0
2016-Feb-07 11:33N 52°24' E 004°50'0 0.0
2016-Feb-07 10:30N 52°24' E 004°50'0 0.0
2016-Feb-07 09:33N 52°24' E 004°50'0 0.0
2016-Feb-07 08:33N 52°24' E 004°50'0 0.0
2016-Feb-07 07:33N 52°24' E 004°50'0 0.0
2016-Feb-07 06:33N 52°24' E 004°50'0 0.0
2016-Feb-07 05:33N 52°24' E 004°50'0 0.0
2016-Feb-07 04:33N 52°24' E 004°50'0 0.0
2016-Feb-07 03:33N 52°24' E 004°50'0 0.0
2016-Feb-07 02:33N 52°24' E 004°50'0 0.0
2016-Feb-07 01:33N 52°24' E 004°50'0 0.0
2016-Feb-07 00:33N 52°24' E 004°50'0 0.0
2016-Feb-06 23:33N 52°24' E 004°50'0 0.0
2016-Feb-06 22:33N 52°24' E 004°50'0 0.0
2016-Feb-06 21:33N 52°24' E 004°50'0 0.0
2016-Feb-06 20:33N 52°24' E 004°50'0 0.0
2016-Feb-06 19:33N 52°24' E 004°50'0 0.0
2016-Feb-06 18:33N 52°24' E 004°50'0 0.0
2016-Feb-06 17:33N 52°24' E 004°50'0 0.0
2016-Feb-06 16:33N 52°24' E 004°50'0 0.0
2016-Feb-06 15:33N 52°24' E 004°50'0 0.0
2016-Feb-06 14:33N 52°24' E 004°50'0 0.0
2016-Feb-06 13:31N 52°24' E 004°50'0 0.0
2016-Feb-06 12:28N 52°24' E 004°50'0 0.0
2016-Feb-06 11:31N 52°24' E 004°50'0 0.0
2016-Feb-06 10:28N 52°24' E 004°50'0 0.0
2016-Feb-06 09:31N 52°24' E 004°50'0 0.0
2016-Feb-06 08:31N 52°24' E 004°50'0 0.0
2016-Feb-06 07:31N 52°24' E 004°50'0 0.1
2016-Feb-06 06:33N 52°24' E 004°50'6 5.6
2016-Feb-06 05:33N 52°27' E 004°42'3 3.4
2016-Feb-06 04:34N 52°28' E 004°37'8 7.8
2016-Feb-06 03:33N 52°28' E 004°24'1414.2
2016-Feb-06 02:33N 52°28' E 004°00'6615.7
2016-Feb-05 22:23N 52°42' E 002°15'1214.1
2016-Feb-05 21:33N 52°47' E 001°58'1414.6
2016-Feb-05 20:34N 52°54' E 001°37'1515.0
2016-Feb-05 19:34N 53°00' E 001°14'1615.5
2016-Feb-05 18:33N 53°09' E 000°53'1915.6
2016-Feb-05 17:22N 53°24' E 000°33'1215.0
2016-Feb-05 16:33N 53°32' E 000°19'1514.6
2016-Feb-05 15:33N 53°36' W 000°05'1110.4
2016-Feb-05 14:32N 53°44' W 000°16'0 0.3
2016-Feb-05 13:32N 53°44' W 000°16'0 0.0
2016-Feb-05 12:32N 53°44' W 000°16'0 0.0
2016-Feb-05 11:32N 53°44' W 000°16'0 0.0
2016-Feb-05 10:32N 53°44' W 000°16'0 0.0
2016-Feb-05 09:32N 53°44' W 000°16'0 0.0
2016-Feb-05 08:32N 53°44' W 000°16'0 0.0
2016-Feb-05 07:32N 53°44' W 000°16'0 0.0
2016-Feb-05 06:32N 53°44' W 000°16'0 0.0
2016-Feb-05 05:32N 53°44' W 000°16'0 0.0
2016-Feb-05 04:32N 53°44' W 000°16'0 0.2
2016-Feb-05 03:33N 53°45' W 000°16'5 5.5
2016-Feb-05 02:34N 53°40' W 000°12'1312.8
2016-Feb-05 01:34N 53°34' E 000°07'10 9.8
2016-Feb-05 00:33N 53°39' E 000°21'41916.1
2016-Feb-03 22:33N 57°45' E 010°22'1414.5
2016-Feb-03 21:33N 57°46' E 010°49'1716.9
2016-Feb-03 20:34N 57°34' E 011°13'1716.6
2016-Feb-03 19:34N 57°21' E 011°30'1717.4
2016-Feb-03 18:33N 57°04' E 011°41'5117.1
2016-Feb-03 15:33N 56°17' E 012°19'1616.5
2016-Feb-03 14:34N 56°05' E 012°37'1413.6
2016-Feb-03 13:33N 55°52' E 012°45'1414.4
2016-Feb-03 12:33N 55°37' E 012°42'1212.2
2016-Feb-03 11:33N 55°25' E 012°41'1312.8
2016-Feb-03 10:33N 55°15' E 012°56'1615.6
2016-Feb-03 09:34N 55°15' E 013°23'1515.4
2016-Feb-03 08:33N 55°14' E 013°50'1514.5
2016-Feb-03 07:33N 55°13' E 014°16'1514.5
2016-Feb-03 06:34N 55°24' E 014°33'1515.4
2016-Feb-03 05:34N 55°33' E 014°55'1414.2
2016-Feb-03 04:33N 55°40' E 015°16'10511.7
2016-Feb-02 19:33N 57°01' E 017°19'1716.6
2016-Feb-02 18:33N 57°16' E 017°32'22713.2
2016-Feb-02 01:23N 59°37' E 023°13'1416.4
2016-Feb-02 00:31N 59°41' E 023°40'7517.2
2016-Feb-01 20:09N 60°01' E 026°03'1117.0
2016-Feb-01 19:29N 60°09' E 026°21'1516.5
2016-Feb-01 18:34N 60°21' E 026°39'1211.8
2016-Feb-01 17:33N 60°29' E 026°57'0 0.0
2016-Feb-01 16:30N 60°29' E 026°57'0 0.0
2016-Feb-01 15:33N 60°29' E 026°57'0 0.0
2016-Feb-01 14:33N 60°29' E 026°57'0 0.0
2016-Feb-01 13:33N 60°29' E 026°57'0 0.0
2016-Feb-01 12:33N 60°29' E 026°57'0 0.0
2016-Feb-01 11:33N 60°29' E 026°57'0 0.0
2016-Feb-01 10:33N 60°29' E 026°57'0 0.0
2016-Feb-01 09:33N 60°29' E 026°57'0 0.0
2016-Feb-01 08:33N 60°29' E 026°57'0 0.0
2016-Feb-01 07:33N 60°29' E 026°57'0 0.0
2016-Feb-01 06:33N 60°29' E 026°57'0 0.0
2016-Feb-01 05:33N 60°29' E 026°57'0 0.0
2016-Feb-01 04:33N 60°29' E 026°57'0 0.0
2016-Feb-01 03:33N 60°29' E 026°57'0 0.0
2016-Feb-01 02:33N 60°29' E 026°57'0 0.0
2016-Feb-01 01:33N 60°29' E 026°57'0 0.0
2016-Feb-01 00:33N 60°29' E 026°57'0 0.0
2016-Jan-31 23:33N 60°29' E 026°57'0 0.0
2016-Jan-31 22:33N 60°29' E 026°57'0 0.0
2016-Jan-31 21:33N 60°29' E 026°57'0 0.0
2016-Jan-31 20:33N 60°29' E 026°57'0 0.0
2016-Jan-31 19:33N 60°29' E 026°57'0 0.0
2016-Jan-31 18:33N 60°29' E 026°57'0 0.0
2016-Jan-31 17:33N 60°29' E 026°57'0 0.0
2016-Jan-31 16:33N 60°29' E 026°57'0 0.0
2016-Jan-31 15:33N 60°29' E 026°57'0 0.0
2016-Jan-31 14:33N 60°29' E 026°57'0 0.0
2016-Jan-31 13:33N 60°29' E 026°57'0 0.0
2016-Jan-31 12:33N 60°29' E 026°57'0 0.0
2016-Jan-31 11:33N 60°29' E 026°57'0 0.0
2016-Jan-31 10:33N 60°29' E 026°57'0 0.0
2016-Jan-31 09:30N 60°29' E 026°57'0 0.0
2016-Jan-31 08:33N 60°29' E 026°57'0 0.0
2016-Jan-31 07:33N 60°29' E 026°57'0 0.0
2016-Jan-31 06:33N 60°29' E 026°57'0 0.0
2016-Jan-31 05:33N 60°29' E 026°57'0 0.0
2016-Jan-31 04:33N 60°29' E 026°57'0 0.0
2016-Jan-31 03:33N 60°29' E 026°57'0 0.0
2016-Jan-31 02:33N 60°29' E 026°57'0 0.0
2016-Jan-31 01:33N 60°29' E 026°57'0 0.0
2016-Jan-31 00:33N 60°29' E 026°57'0 0.0
2016-Jan-30 23:33N 60°29' E 026°57'0 0.0
2016-Jan-30 22:33N 60°29' E 026°57'0 0.0
2016-Jan-30 21:33N 60°29' E 026°57'0 0.0
2016-Jan-30 20:33N 60°29' E 026°57'0 0.0
2016-Jan-30 19:33N 60°29' E 026°57'0 0.0
2016-Jan-30 18:33N 60°29' E 026°57'0 0.0
2016-Jan-30 17:33N 60°29' E 026°57'0 0.0
2016-Jan-30 16:33N 60°29' E 026°57'0 0.0
2016-Jan-30 15:33N 60°29' E 026°57'0 0.0
2016-Jan-30 14:33N 60°29' E 026°57'0 0.0
2016-Jan-30 13:33N 60°29' E 026°57'0 0.0
2016-Jan-30 12:33N 60°29' E 026°57'0 0.0
2016-Jan-30 11:33N 60°29' E 026°57'0 0.0
2016-Jan-30 10:33N 60°29' E 026°57'0 0.0
2016-Jan-30 09:33N 60°29' E 026°57'  
Track history (hours):
 
Tides and Currents Weather Stations Pressure Air Temp Water Temp Dewpoint Dewpoint Depression Visibility Wind Speed Wind Dir Waves Ship Positions

Finnhawk

Last reported at 2016-Feb-09 09:27 UTC. Time now 2016-Feb-09 17:55 UTC.
Position N 54°14' E 004°53'.

Length 163 m; draft 5.5 m.

Type: Ship. MMSI: 230007000.

Date/timePositionNaut miles runAvg speedWind from/ knotsBaromVisibWave heightAir tempDewpointWater temp
2016-Feb-09 09:27N 54°14' E 004°53'3819.7
2016-Feb-09 07:31N 53°43' E 004°15'2020.6
2016-Feb-09 06:34N 53°31' E 003°49'2019.8
2016-Feb-09 05:34N 53°14' E 003°33'2420.2
2016-Feb-09 04:21N 52°52' E 003°17'1821.0
2016-Feb-09 03:29N 52°37' E 002°59'5021.4
2016-Feb-09 01:10N 51°55' E 002°15'1321.1
2016-Feb-09 00:33N 51°44' E 002°03'2020.2
2016-Feb-08 23:34N 51°31' E 001°39'1212.1
2016-Feb-08 22:34N 51°29' E 001°20'1515.3
2016-Feb-08 21:33N 51°29' E 000°55'1515.4
2016-Feb-08 20:33N 51°30' E 000°31'7 6.9
2016-Feb-08 19:34N 51°27' E 000°20'1 0.6
2016-Feb-08 18:34N 51°27' E 000°21'0 0.0
2016-Feb-08 17:34N 51°27' E 000°21'0 0.0
2016-Feb-08 16:34N 51°27' E 000°21'0 0.0
2016-Feb-08 15:34N 51°27' E 000°21'0 0.0
2016-Feb-08 14:34N 51°27' E 000°21'0 0.0
2016-Feb-08 13:34N 51°27' E 000°21'0 0.0
2016-Feb-08 12:34N 51°27' E 000°21'0 0.0
2016-Feb-08 11:34N 51°27' E 000°21'0 0.0
2016-Feb-08 10:34N 51°27' E 000°21'0 0.1
2016-Feb-08 09:34N 51°27' E 000°21'1 0.6
2016-Feb-08 08:34N 51°27' E 000°22'10 9.7
2016-Feb-08 07:33N 51°30' E 000°37'1716.6
2016-Feb-08 06:34N 51°30' E 001°03'1211.8
2016-Feb-08 05:34N 51°28' E 001°22'9 9.4
2016-Feb-08 04:33N 51°30' E 001°37'1414.0
2016-Feb-08 03:34N 51°38' E 001°55'1413.9
2016-Feb-08 02:33N 51°45' E 002°14'5911.2
2016-Feb-07 21:17N 52°23' E 003°29'811.1
2016-Feb-07 20:32N 52°27' E 003°40'1211.8
2016-Feb-07 19:34N 52°32' E 003°57'1312.7
2016-Feb-07 18:33N 52°30' E 004°18'10 9.5
2016-Feb-07 17:33N 52°28' E 004°33'3 3.0
2016-Feb-07 16:34N 52°28' E 004°38'8 8.3
2016-Feb-07 15:33N 52°24' E 004°50'0 0.0
2016-Feb-07 14:33N 52°24' E 004°50'0 0.0
2016-Feb-07 13:33N 52°24' E 004°50'0 0.0
2016-Feb-07 12:33N 52°24' E 004°50'0 0.0
2016-Feb-07 11:33N 52°24' E 004°50'0 0.0
2016-Feb-07 10:30N 52°24' E 004°50'0 0.0
2016-Feb-07 09:33N 52°24' E 004°50'0 0.0
2016-Feb-07 08:33N 52°24' E 004°50'0 0.0
2016-Feb-07 07:33N 52°24' E 004°50'0 0.0
2016-Feb-07 06:33N 52°24' E 004°50'0 0.0
2016-Feb-07 05:33N 52°24' E 004°50'0 0.0
2016-Feb-07 04:33N 52°24' E 004°50'0 0.0
2016-Feb-07 03:33N 52°24' E 004°50'0 0.0
2016-Feb-07 02:33N 52°24' E 004°50'0 0.0
2016-Feb-07 01:33N 52°24' E 004°50'0 0.0
2016-Feb-07 00:33N 52°24' E 004°50'0 0.0
2016-Feb-06 23:33N 52°24' E 004°50'0 0.0
2016-Feb-06 22:33N 52°24' E 004°50'0 0.0
2016-Feb-06 21:33N 52°24' E 004°50'0 0.0
2016-Feb-06 20:33N 52°24' E 004°50'0 0.0
2016-Feb-06 19:33N 52°24' E 004°50'0 0.0
2016-Feb-06 18:33N 52°24' E 004°50'0 0.0
2016-Feb-06 17:33N 52°24' E 004°50'0 0.0
2016-Feb-06 16:33N 52°24' E 004°50'0 0.0
2016-Feb-06 15:33N 52°24' E 004°50'0 0.0
2016-Feb-06 14:33N 52°24' E 004°50'0 0.0
2016-Feb-06 13:31N 52°24' E 004°50'0 0.0
2016-Feb-06 12:28N 52°24' E 004°50'0 0.0
2016-Feb-06 11:31N 52°24' E 004°50'0 0.0
2016-Feb-06 10:28N 52°24' E 004°50'0 0.0
2016-Feb-06 09:31N 52°24' E 004°50'0 0.0
2016-Feb-06 08:31N 52°24' E 004°50'0 0.0
2016-Feb-06 07:31N 52°24' E 004°50'0 0.1
2016-Feb-06 06:33N 52°24' E 004°50'6 5.6
2016-Feb-06 05:33N 52°27' E 004°42'3 3.4
2016-Feb-06 04:34N 52°28' E 004°37'8 7.8
2016-Feb-06 03:33N 52°28' E 004°24'1414.2
2016-Feb-06 02:33N 52°28' E 004°00'6615.7
2016-Feb-05 22:23N 52°42' E 002°15'1214.1
2016-Feb-05 21:33N 52°47' E 001°58'1414.6
2016-Feb-05 20:34N 52°54' E 001°37'1515.0
2016-Feb-05 19:34N 53°00' E 001°14'1615.5
2016-Feb-05 18:33N 53°09' E 000°53'1915.6
2016-Feb-05 17:22N 53°24' E 000°33'1215.0
2016-Feb-05 16:33N 53°32' E 000°19'1514.6
2016-Feb-05 15:33N 53°36' W 000°05'1110.4
2016-Feb-05 14:32N 53°44' W 000°16'0 0.3
2016-Feb-05 13:32N 53°44' W 000°16'0 0.0
2016-Feb-05 12:32N 53°44' W 000°16'0 0.0
2016-Feb-05 11:32N 53°44' W 000°16'0 0.0
2016-Feb-05 10:32N 53°44' W 000°16'0 0.0
2016-Feb-05 09:32N 53°44' W 000°16'0 0.0
2016-Feb-05 08:32N 53°44' W 000°16'0 0.0
2016-Feb-05 07:32N 53°44' W 000°16'0 0.0
2016-Feb-05 06:32N 53°44' W 000°16'0 0.0
2016-Feb-05 05:32N 53°44' W 000°16'0 0.0
2016-Feb-05 04:32N 53°44' W 000°16'0 0.2
2016-Feb-05 03:33N 53°45' W 000°16'5 5.5
2016-Feb-05 02:34N 53°40' W 000°12'1312.8
2016-Feb-05 01:34N 53°34' E 000°07'10 9.8
2016-Feb-05 00:33N 53°39' E 000°21'41916.1
2016-Feb-03 22:33N 57°45' E 010°22'1414.5
2016-Feb-03 21:33N 57°46' E 010°49'1716.9
2016-Feb-03 20:34N 57°34' E 011°13'1716.6
2016-Feb-03 19:34N 57°21' E 011°30'1717.4
2016-Feb-03 18:33N 57°04' E 011°41'5117.1
2016-Feb-03 15:33N 56°17' E 012°19'1616.5
2016-Feb-03 14:34N 56°05' E 012°37'1413.6
2016-Feb-03 13:33N 55°52' E 012°45'1414.4
2016-Feb-03 12:33N 55°37' E 012°42'1212.2
2016-Feb-03 11:33N 55°25' E 012°41'1312.8
2016-Feb-03 10:33N 55°15' E 012°56'1615.6
2016-Feb-03 09:34N 55°15' E 013°23'1515.4
2016-Feb-03 08:33N 55°14' E 013°50'1514.5
2016-Feb-03 07:33N 55°13' E 014°16'1514.5
2016-Feb-03 06:34N 55°24' E 014°33'1515.4
2016-Feb-03 05:34N 55°33' E 014°55'1414.2
2016-Feb-03 04:33N 55°40' E 015°16'10511.7
2016-Feb-02 19:33N 57°01' E 017°19'1716.6
2016-Feb-02 18:33N 57°16' E 017°32'22713.2
2016-Feb-02 01:23N 59°37' E 023°13'1416.4
2016-Feb-02 00:31N 59°41' E 023°40'7517.2
2016-Feb-01 20:09N 60°01' E 026°03'1117.0
2016-Feb-01 19:29N 60°09' E 026°21'1516.5
2016-Feb-01 18:34N 60°21' E 026°39'1211.8
2016-Feb-01 17:33N 60°29' E 026°57'0 0.0
2016-Feb-01 16:30N 60°29' E 026°57'0 0.0
2016-Feb-01 15:33N 60°29' E 026°57'0 0.0
2016-Feb-01 14:33N 60°29' E 026°57'0 0.0
2016-Feb-01 13:33N 60°29' E 026°57'0 0.0
2016-Feb-01 12:33N 60°29' E 026°57'0 0.0
2016-Feb-01 11:33N 60°29' E 026°57'0 0.0
2016-Feb-01 10:33N 60°29' E 026°57'0 0.0
2016-Feb-01 09:33N 60°29' E 026°57'0 0.0
2016-Feb-01 08:33N 60°29' E 026°57'0 0.0
2016-Feb-01 07:33N 60°29' E 026°57'0 0.0
2016-Feb-01 06:33N 60°29' E 026°57'0 0.0
2016-Feb-01 05:33N 60°29' E 026°57'0 0.0
2016-Feb-01 04:33N 60°29' E 026°57'0 0.0
2016-Feb-01 03:33N 60°29' E 026°57'0 0.0
2016-Feb-01 02:33N 60°29' E 026°57'0 0.0
2016-Feb-01 01:33N 60°29' E 026°57'0 0.0
2016-Feb-01 00:33N 60°29' E 026°57'0 0.0
2016-Jan-31 23:33N 60°29' E 026°57'0 0.0
2016-Jan-31 22:33N 60°29' E 026°57'0 0.0
2016-Jan-31 21:33N 60°29' E 026°57'0 0.0
2016-Jan-31 20:33N 60°29' E 026°57'0 0.0
2016-Jan-31 19:33N 60°29' E 026°57'0 0.0
2016-Jan-31 18:33N 60°29' E 026°57'0 0.0
2016-Jan-31 17:33N 60°29' E 026°57'0 0.0
2016-Jan-31 16:33N 60°29' E 026°57'0 0.0
2016-Jan-31 15:33N 60°29' E 026°57'0 0.0
2016-Jan-31 14:33N 60°29' E 026°57'0 0.0
2016-Jan-31 13:33N 60°29' E 026°57'0 0.0
2016-Jan-31 12:33N 60°29' E 026°57'0 0.0
2016-Jan-31 11:33N 60°29' E 026°57'0 0.0
2016-Jan-31 10:33N 60°29' E 026°57'0 0.0
2016-Jan-31 09:30N 60°29' E 026°57'0 0.0
2016-Jan-31 08:33N 60°29' E 026°57'0 0.0
2016-Jan-31 07:33N 60°29' E 026°57'0 0.0
2016-Jan-31 06:33N 60°29' E 026°57'0 0.0
2016-Jan-31 05:33N 60°29' E 026°57'0 0.0
2016-Jan-31 04:33N 60°29' E 026°57'0 0.0
2016-Jan-31 03:33N 60°29' E 026°57'0 0.0
2016-Jan-31 02:33N 60°29' E 026°57'0 0.0
2016-Jan-31 01:33N 60°29' E 026°57'0 0.0
2016-Jan-31 00:33N 60°29' E 026°57'0 0.0
2016-Jan-30 23:33N 60°29' E 026°57'0 0.0
2016-Jan-30 22:33N 60°29' E 026°57'0 0.0
2016-Jan-30 21:33N 60°29' E 026°57'0 0.0
2016-Jan-30 20:33N 60°29' E 026°57'0 0.0
2016-Jan-30 19:33N 60°29' E 026°57'0 0.0
2016-Jan-30 18:33N 60°29' E 026°57'0 0.0
2016-Jan-30 17:33N 60°29' E 026°57'0 0.0
2016-Jan-30 16:33N 60°29' E 026°57'0 0.0
2016-Jan-30 15:33N 60°29' E 026°57'0 0.0
2016-Jan-30 14:33N 60°29' E 026°57'0 0.0
2016-Jan-30 13:33N 60°29' E 026°57'0 0.0
2016-Jan-30 12:33N 60°29' E 026°57'0 0.0
2016-Jan-30 11:33N 60°29' E 026°57'0 0.0
2016-Jan-30 10:33N 60°29' E 026°57'0 0.0
2016-Jan-30 09:33N 60°29' E 026°57'  

Dump ship's entire track history